createdAt,value
2023-04-16T00:00:06.586Z,98883.78
2023-04-16T00:02:34.646Z,98890.56
2023-04-16T00:05:02.700Z,98876.88
2023-04-16T00:07:32.085Z,98869.28
2023-04-16T00:10:00.023Z,98876.38
2023-04-16T00:12:27.938Z,98883.25
2023-04-16T00:14:55.847Z,98885.59
2023-04-16T00:17:23.844Z,98886.25
2023-04-16T00:19:51.998Z,98875.72
2023-04-16T00:22:19.938Z,98875.50
2023-04-16T00:24:49.272Z,98879.97
2023-04-16T00:27:17.187Z,98874.78
2023-04-16T00:29:45.100Z,98873.91
2023-04-16T00:32:13.016Z,98892.63
2023-04-16T00:34:40.920Z,98878.06
2023-04-16T00:37:08.805Z,98893.47
2023-04-16T00:39:36.756Z,98898.03
2023-04-16T00:42:06.067Z,98873.31
2023-04-16T00:44:36.046Z,98886.56
2023-04-16T00:47:04.307Z,98893.28
2023-04-16T00:49:32.492Z,98889.97
2023-04-16T00:52:02.499Z,98891.78
2023-04-16T00:54:31.072Z,98888.38
2023-04-16T00:57:00.206Z,98867.47
2023-04-16T00:59:30.442Z,98893.22
2023-04-16T01:01:58.492Z,98888.97
2023-04-16T01:04:26.674Z,98892.78
2023-04-16T01:06:54.909Z,98877.31
2023-04-16T01:09:22.858Z,98887.06
2023-04-16T01:11:50.781Z,98883.38
2023-04-16T01:14:18.714Z,98874.22
2023-04-16T01:16:48.111Z,98884.53
2023-04-16T01:19:16.138Z,98889.41
2023-04-16T01:21:45.639Z,98891.50
2023-04-16T01:24:13.613Z,98889.59
2023-04-16T01:26:41.490Z,98880.59
2023-04-16T01:29:09.642Z,98889.06
2023-04-16T01:31:37.859Z,98890.63
2023-04-16T01:34:06.151Z,98872.84
2023-04-16T01:36:34.024Z,98879.94
2023-04-16T01:39:03.484Z,98887.69
2023-04-16T01:41:32.284Z,98881.41
2023-04-16T01:44:00.183Z,98885.47
2023-04-16T01:46:30.018Z,98894.16
2023-04-16T01:48:58.252Z,98880.25
2023-04-16T01:51:27.328Z,98864.25
2023-04-16T01:53:56.100Z,98888.50
2023-04-16T01:56:25.467Z,98888.50
2023-04-16T01:58:54.133Z,98875.81
2023-04-16T02:01:22.190Z,98891.06
2023-04-16T02:03:50.353Z,98892.66
2023-04-16T02:06:18.319Z,98886.19
2023-04-16T02:08:46.261Z,98898.19
2023-04-16T02:11:14.174Z,98895.84
2023-04-16T02:13:43.466Z,98889.16
2023-04-16T02:16:11.480Z,98886.31
2023-04-16T02:18:39.520Z,98897.88
2023-04-16T02:21:07.917Z,98894.34
2023-04-16T02:23:36.017Z,98891.38
2023-04-16T02:26:04.635Z,98897.25
2023-04-16T02:28:32.609Z,98899.78
2023-04-16T02:31:01.978Z,98881.00
2023-04-16T02:33:30.244Z,98904.00
2023-04-16T02:35:58.139Z,98898.72
2023-04-16T02:38:26.153Z,98902.53
2023-04-16T02:40:54.099Z,98909.53
2023-04-16T02:43:21.968Z,98896.06
2023-04-16T02:45:49.953Z,98902.19
2023-04-16T02:48:19.237Z,98891.69
2023-04-16T02:50:47.160Z,98899.47
2023-04-16T02:53:15.045Z,98895.75
2023-04-16T02:55:44.100Z,98874.53
2023-04-16T02:58:11.977Z,98898.41
2023-04-16T03:00:39.897Z,98909.19
2023-04-16T03:03:07.951Z,98901.97
2023-04-16T03:05:39.712Z,98900.84
2023-04-16T03:08:08.532Z,98880.34
2023-04-16T03:10:36.638Z,98906.78
2023-04-16T03:13:05.145Z,98907.41
2023-04-16T03:15:33.123Z,98892.97
2023-04-16T03:18:01.429Z,98883.13
2023-04-16T03:20:29.433Z,98905.50
2023-04-16T03:22:58.795Z,98903.06
2023-04-16T03:25:26.732Z,98904.34
2023-04-16T03:27:54.682Z,98902.22
2023-04-16T03:30:22.800Z,98904.75
2023-04-16T03:32:50.846Z,98904.75
2023-04-16T03:35:18.877Z,98899.28
2023-04-16T03:37:46.774Z,98903.59
2023-04-16T03:40:16.425Z,98897.34
2023-04-16T03:42:44.361Z,98907.63
2023-04-16T03:45:12.587Z,98897.88
2023-04-16T03:47:40.466Z,98910.06
2023-04-16T03:50:08.960Z,98901.06
2023-04-16T03:52:36.858Z,98904.22
2023-04-16T03:55:05.264Z,98900.63
2023-04-16T03:57:34.513Z,98908.47
2023-04-16T04:00:02.433Z,98897.88
2023-04-16T04:02:30.511Z,98893.53
2023-04-16T04:04:58.524Z,98897.25
2023-04-16T04:07:26.426Z,98896.19
2023-04-16T04:09:54.369Z,98896.28
2023-04-16T04:12:22.254Z,98898.19
2023-04-16T04:14:51.591Z,98898.72
2023-04-16T04:17:19.548Z,98898.72
2023-04-16T04:20:00.552Z,98899.59
2023-04-16T04:22:29.496Z,98906.78
2023-04-16T04:24:57.426Z,98905.72
2023-04-16T04:27:25.322Z,98904.22
2023-04-16T04:29:54.765Z,98909.53
2023-04-16T04:32:22.763Z,98916.41
2023-04-16T04:34:50.769Z,98917.25
2023-04-16T04:37:18.715Z,98911.22
2023-04-16T04:39:46.674Z,98921.81
2023-04-16T04:42:14.721Z,98921.94
2023-04-16T04:44:42.663Z,98921.81
2023-04-16T04:47:12.037Z,98930.72
2023-04-16T04:49:40.155Z,98924.28
2023-04-16T04:52:08.164Z,98929.66
2023-04-16T04:54:36.165Z,98930.50
2023-04-16T04:57:04.116Z,98932.41
2023-04-16T04:59:32.089Z,98930.63
2023-04-16T05:02:00.549Z,98933.69
2023-04-16T05:04:29.893Z,98925.34
2023-04-16T05:06:57.760Z,98932.72
2023-04-16T05:09:25.917Z,98938.22
2023-04-16T05:11:54.075Z,98938.75
2023-04-16T05:14:21.989Z,98934.97
2023-04-16T05:16:49.943Z,98937.69
2023-04-16T05:19:18.172Z,98942.59
2023-04-16T05:21:47.395Z,98941.84
2023-04-16T05:24:15.358Z,98951.91
2023-04-16T05:26:43.858Z,98932.78
2023-04-16T05:29:13.404Z,98947.78
2023-04-16T05:31:41.327Z,98958.50
2023-04-16T05:34:09.288Z,98955.94
2023-04-16T05:36:37.350Z,98949.28
2023-04-16T05:39:08.537Z,98958.81
2023-04-16T05:41:37.106Z,98964.63
2023-04-16T05:44:05.246Z,98971.22
2023-04-16T05:46:33.213Z,98969.94
2023-04-16T05:49:01.413Z,98976.06
2023-04-16T05:51:29.411Z,98958.88
2023-04-16T05:53:57.410Z,98974.06
2023-04-16T05:56:27.179Z,98980.44
2023-04-16T05:58:55.109Z,98986.13
2023-04-16T06:01:23.622Z,98980.59
2023-04-16T06:03:51.748Z,98987.34
2023-04-16T06:06:19.703Z,98976.31
2023-04-16T06:08:47.649Z,98990.88
2023-04-16T06:11:15.594Z,98982.06
2023-04-16T06:13:46.030Z,98990.91
2023-04-16T06:16:14.097Z,98971.13
2023-04-16T06:18:42.409Z,98963.78
2023-04-16T06:21:10.383Z,98988.34
2023-04-16T06:23:38.277Z,98991.75
2023-04-16T06:26:06.566Z,98986.75
2023-04-16T06:28:34.560Z,98995.53
2023-04-16T06:31:03.944Z,98994.91
2023-04-16T06:33:31.853Z,99005.28
2023-04-16T06:35:59.772Z,99010.13
2023-04-16T06:38:27.685Z,99009.66
2023-04-16T06:40:56.581Z,99014.28
2023-04-16T06:43:24.528Z,99015.25
2023-04-16T06:45:52.467Z,99023.09
2023-04-16T06:48:21.808Z,99023.09
2023-04-16T06:50:49.787Z,99023.41
2023-04-16T06:53:17.877Z,99023.78
2023-04-16T06:55:45.722Z,99031.72
2023-04-16T06:58:13.632Z,99027.81
2023-04-16T07:00:41.502Z,99035.00
2023-04-16T07:03:09.602Z,99042.44
2023-04-16T07:05:38.997Z,99033.56
2023-04-16T07:08:07.304Z,99038.75
2023-04-16T07:10:35.410Z,99043.03
2023-04-16T07:13:03.426Z,99040.59
2023-04-16T07:15:31.327Z,99043.63
2023-04-16T07:17:59.237Z,99040.75
2023-04-16T07:20:27.217Z,99038.69
2023-04-16T07:22:56.561Z,99045.13
2023-04-16T07:25:24.573Z,99042.09
2023-04-16T07:27:52.766Z,99042.81
2023-04-16T07:30:20.786Z,99037.34
2023-04-16T07:32:48.749Z,99045.19
2023-04-16T07:35:16.683Z,99046.22
2023-04-16T07:37:44.589Z,99047.94
2023-04-16T07:40:14.304Z,99049.34
2023-04-16T07:42:42.253Z,99054.75
2023-04-16T07:45:11.126Z,99050.19
2023-04-16T07:47:39.000Z,99057.50
2023-04-16T07:50:08.279Z,99058.25
2023-04-16T07:52:37.327Z,99061.94
2023-04-16T07:55:05.757Z,99053.91
2023-04-16T07:57:35.278Z,99055.81
2023-04-16T08:00:05.082Z,99056.13
2023-04-16T08:02:33.288Z,99054.63
2023-04-16T08:05:01.477Z,99065.38
2023-04-16T08:07:29.540Z,99068.03
2023-04-16T08:09:57.429Z,99079.88
2023-04-16T08:12:25.445Z,99080.78
2023-04-16T08:14:54.756Z,99081.84
2023-04-16T08:17:22.738Z,99082.88
2023-04-16T08:19:50.856Z,99087.34
2023-04-16T08:22:18.964Z,99084.00
2023-04-16T08:24:46.935Z,99074.75
2023-04-16T08:27:18.441Z,99095.06
2023-04-16T08:29:47.548Z,99106.06
2023-04-16T08:32:16.924Z,99094.72
2023-04-16T08:34:44.842Z,99099.81
2023-04-16T08:37:12.749Z,99103.56
2023-04-16T08:39:40.667Z,99101.41
2023-04-16T08:42:15.401Z,99109.28
2023-04-16T08:44:49.392Z,99111.81
2023-04-16T08:47:18.986Z,99106.97
2023-04-16T08:49:47.055Z,99112.94
2023-04-16T08:52:19.583Z,99111.03
2023-04-16T08:54:56.732Z,99121.19
2023-04-16T08:57:31.605Z,99120.00
2023-04-16T09:00:00.159Z,99106.41
2023-04-16T09:02:30.003Z,99120.00
2023-04-16T09:05:01.544Z,99097.34
2023-04-16T09:07:30.910Z,99121.34
2023-04-16T09:10:00.712Z,99126.16
2023-04-16T09:12:28.983Z,99128.16
2023-04-16T09:14:59.795Z,99131.56
2023-04-16T09:17:29.216Z,99134.41
2023-04-16T09:19:57.212Z,99130.63
2023-04-16T09:22:25.116Z,99130.72
2023-04-16T09:24:53.053Z,99127.88
2023-04-16T09:27:23.243Z,99129.50
2023-04-16T09:29:52.066Z,99138.28
2023-04-16T09:32:26.361Z,99131.00
2023-04-16T09:35:00.183Z,99127.59
2023-04-16T09:37:29.836Z,99133.53
2023-04-16T09:40:00.743Z,99137.72
2023-04-16T09:42:32.346Z,99131.19
2023-04-16T09:45:02.786Z,99130.53
2023-04-16T09:47:51.077Z,99140.28
2023-04-16T09:50:21.638Z,99139.13
2023-04-16T09:52:51.662Z,99148.56
2023-04-16T09:55:24.890Z,99145.00
2023-04-16T09:58:00.394Z,99156.53
2023-04-16T10:00:30.632Z,99154.63
2023-04-16T10:03:05.833Z,99158.69
2023-04-16T10:05:35.265Z,99153.88
2023-04-16T10:08:03.280Z,99151.31
2023-04-16T10:10:31.926Z,99158.31
2023-04-16T10:12:59.959Z,99155.28
2023-04-16T10:15:28.970Z,99161.13
2023-04-16T10:17:58.316Z,99168.22
2023-04-16T10:20:27.423Z,99162.47
2023-04-16T10:22:57.960Z,99162.28
2023-04-16T10:25:26.853Z,99160.56
2023-04-16T10:27:55.597Z,99167.25
2023-04-16T10:32:53.759Z,99174.81
2023-04-16T10:35:21.769Z,99171.78
2023-04-16T10:37:51.557Z,99177.38
2023-04-16T10:40:26.716Z,99177.66
2023-04-16T10:42:58.268Z,99176.06
2023-04-16T10:45:32.658Z,99183.81
2023-04-16T10:48:00.603Z,99188.75
2023-04-16T10:50:39.184Z,99190.38
2023-04-16T10:53:25.829Z,99188.03
2023-04-16T10:56:12.861Z,99186.97
2023-04-16T10:58:42.870Z,99191.31
2023-04-16T11:01:16.590Z,99184.31
2023-04-16T11:03:48.982Z,99186.72
2023-04-16T11:06:18.132Z,99189.69
2023-04-16T11:08:54.742Z,99185.09
2023-04-16T11:11:26.802Z,99190.28
2023-04-16T11:13:57.495Z,99190.84
2023-04-16T11:16:27.352Z,99182.25
2023-04-16T11:18:57.175Z,99198.41
2023-04-16T11:21:25.753Z,99190.28
2023-04-16T11:23:54.423Z,99199.16
2023-04-16T11:26:28.763Z,99198.31
2023-04-16T11:28:57.759Z,99194.41
2023-04-16T11:31:27.323Z,99191.88
2023-04-16T11:33:57.530Z,99189.41
2023-04-16T11:36:27.820Z,99182.34
2023-04-16T11:39:03.779Z,99182.41
2023-04-16T11:41:33.121Z,99187.69
2023-04-16T11:44:01.427Z,99192.22
2023-04-16T11:46:39.697Z,99181.66
2023-04-16T11:49:07.857Z,99188.06
2023-04-16T11:51:41.227Z,99188.44
2023-04-16T11:54:12.001Z,99169.97
2023-04-16T11:56:48.434Z,99192.69
2023-04-16T11:59:17.844Z,99190.03
2023-04-16T12:01:49.219Z,99182.75
2023-04-16T12:04:18.648Z,99192.75
2023-04-16T12:07:09.181Z,99192.38
2023-04-16T12:09:40.190Z,99189.44
2023-04-16T12:12:27.389Z,99194.75
2023-04-16T12:14:56.936Z,99193.81
2023-04-16T12:17:25.305Z,99185.28
2023-04-16T12:19:56.600Z,99186.53
2023-04-16T12:22:29.092Z,99192.91
2023-04-16T12:24:59.462Z,99201.81
2023-04-16T12:27:43.271Z,99194.81
2023-04-16T12:30:12.121Z,99196.72
2023-04-16T12:32:40.160Z,99197.25
2023-04-16T12:35:09.296Z,99200.25
2023-04-16T12:37:37.251Z,99205.44
2023-04-16T12:40:07.055Z,99205.13
2023-04-16T12:42:36.927Z,99206.84
2023-04-16T12:45:05.955Z,99199.44
2023-04-16T12:47:34.298Z,99210.97
2023-04-16T12:50:02.357Z,99199.22
2023-04-16T12:52:30.314Z,99199.22
2023-04-16T12:54:58.319Z,99201.88
2023-04-16T12:57:28.812Z,99199.50
2023-04-16T12:59:58.783Z,99203.84
2023-04-16T13:02:27.224Z,99204.59
2023-04-16T13:04:55.832Z,99207.69
2023-04-16T13:07:24.253Z,99204.38
2023-04-16T13:09:52.220Z,99206.50
2023-04-16T13:12:20.206Z,99195.22
2023-04-16T13:14:48.139Z,99202.59
2023-04-16T13:17:17.401Z,99197.53
2023-04-16T13:19:45.813Z,99197.34
2023-04-16T13:22:14.089Z,99191.06
2023-04-16T13:24:42.006Z,99195.97
2023-04-16T13:27:10.318Z,99199.25
2023-04-16T13:29:38.248Z,99194.47
2023-04-16T13:32:06.862Z,99193.81
2023-04-16T13:34:36.232Z,99195.09
2023-04-16T13:37:04.128Z,99191.25
2023-04-16T13:39:32.036Z,99192.31
2023-04-16T13:42:00.251Z,99185.31
2023-04-16T13:44:28.202Z,99193.72
2023-04-16T13:46:56.323Z,99187.22
2023-04-16T13:49:24.536Z,99183.81
2023-04-16T13:51:53.854Z,99195.28
2023-04-16T13:54:22.092Z,99190.63
2023-04-16T13:56:51.359Z,99192.75
2023-04-16T13:59:20.263Z,99186.81
2023-04-16T14:01:48.226Z,99189.91
2023-04-16T14:04:16.316Z,99189.59
2023-04-16T14:06:44.291Z,99194.91
2023-04-16T14:09:13.637Z,99179.81
2023-04-16T14:11:41.627Z,99186.59
2023-04-16T14:14:09.580Z,99191.25
2023-04-16T14:16:37.483Z,99184.88
2023-04-16T14:19:05.453Z,99166.69
2023-04-16T14:21:33.368Z,99178.69
2023-04-16T14:24:01.274Z,99186.63
2023-04-16T14:26:30.655Z,99149.06
2023-04-16T14:28:58.647Z,99184.34
2023-04-16T14:31:27.704Z,99185.59
2023-04-16T14:33:55.898Z,99182.72
2023-04-16T14:36:23.863Z,99185.81
2023-04-16T14:38:51.764Z,99174.66
2023-04-16T14:41:19.699Z,99179.75
2023-04-16T14:43:49.011Z,99164.25
2023-04-16T14:46:17.880Z,99172.03
2023-04-16T14:48:46.368Z,99172.81
2023-04-16T14:51:14.320Z,99169.59
2023-04-16T14:53:42.281Z,99179.16
2023-04-16T14:56:13.602Z,99181.13
2023-04-16T14:58:42.933Z,99183.63
2023-04-16T15:01:13.728Z,99176.44
2023-04-16T15:03:43.046Z,99172.16
2023-04-16T15:06:11.452Z,99189.59
2023-04-16T15:08:39.492Z,99196.50
2023-04-16T15:11:07.520Z,99195.84
2023-04-16T15:13:35.410Z,99183.13
2023-04-16T15:16:04.492Z,99174.94
2023-04-16T15:18:34.215Z,99188.22
2023-04-16T15:21:02.191Z,99195.44
2023-04-16T15:23:30.198Z,99193.41
2023-04-16T15:25:58.112Z,99183.34
2023-04-16T15:28:26.160Z,99193.53
2023-04-16T15:30:54.197Z,99199.78
2023-04-16T15:33:22.553Z,99176.09
2023-04-16T15:35:52.638Z,99184.72
2023-04-16T15:38:21.345Z,99197.69
2023-04-16T15:40:49.300Z,99198.31
2023-04-16T15:43:17.424Z,99206.16
2023-04-16T15:45:46.179Z,99195.34
2023-04-16T15:48:14.346Z,99198.75
2023-04-16T15:50:42.294Z,99198.75
2023-04-16T15:53:12.914Z,99199.06
2023-04-16T15:55:40.971Z,99198.97
2023-04-16T15:58:09.012Z,99193.75
2023-04-16T16:00:36.983Z,99198.22
2023-04-16T16:03:05.136Z,99205.00
2023-04-16T16:05:33.263Z,99203.28
2023-04-16T16:08:01.845Z,99207.22
2023-04-16T16:10:31.205Z,99195.97
2023-04-16T16:13:05.190Z,99209.03
2023-04-16T16:15:35.553Z,99206.16
2023-04-16T16:18:03.557Z,99212.22
2023-04-16T16:20:32.015Z,99205.63
2023-04-16T16:22:59.902Z,99209.66
2023-04-16T16:25:27.830Z,99209.13
2023-04-16T16:27:57.190Z,99211.22
2023-04-16T16:30:25.681Z,99213.53
2023-04-16T16:32:53.791Z,99204.50
2023-04-16T16:35:21.882Z,99191.03
2023-04-16T16:37:51.865Z,99210.13
2023-04-16T16:40:19.735Z,99211.72
2023-04-16T16:42:47.703Z,99206.63
2023-04-16T16:45:17.305Z,99204.06
2023-04-16T16:47:45.273Z,99206.94
2023-04-16T16:50:13.651Z,99216.94
2023-04-16T16:52:41.753Z,99216.47
2023-04-16T16:55:11.188Z,99220.28
2023-04-16T16:57:39.939Z,99215.19
2023-04-16T17:00:16.317Z,99218.03
2023-04-16T17:02:45.749Z,99219.44
2023-04-16T17:05:13.930Z,99219.53
2023-04-16T17:07:41.823Z,99217.84
2023-04-16T17:10:13.224Z,99220.88
2023-04-16T17:12:41.208Z,99217.69
2023-04-16T17:15:10.306Z,99211.63
2023-04-16T17:17:38.267Z,99223.19
2023-04-16T17:20:10.829Z,99216.81
2023-04-16T17:22:39.734Z,99221.81
2023-04-16T17:25:08.776Z,99232.72
2023-04-16T17:27:36.718Z,99225.06
2023-04-16T17:30:05.897Z,99226.78
2023-04-16T17:32:33.995Z,99227.84
2023-04-16T17:35:04.246Z,99230.28
2023-04-16T17:37:34.319Z,99229.97
2023-04-16T17:40:06.459Z,99240.56
2023-04-16T17:42:34.818Z,99237.78
2023-04-16T17:45:02.880Z,99237.78
2023-04-16T17:47:30.844Z,99223.75
2023-04-16T17:49:58.803Z,99239.91
2023-04-16T17:52:27.356Z,99248.06
2023-04-16T17:55:00.361Z,99247.31
2023-04-16T17:57:28.342Z,99246.88
2023-04-16T17:59:56.384Z,99244.34
2023-04-16T18:02:24.578Z,99230.44
2023-04-16T18:04:52.750Z,99253.81
2023-04-16T18:07:20.790Z,99253.38
2023-04-16T18:09:48.760Z,99243.06
2023-04-16T18:12:18.032Z,99259.72
2023-04-16T18:14:46.232Z,99256.94
2023-04-16T18:17:14.154Z,99256.03
2023-04-16T18:19:43.830Z,99261.13
2023-04-16T18:22:13.327Z,99253.81
2023-04-16T18:24:41.318Z,99261.88
2023-04-16T18:27:09.367Z,99265.16
2023-04-16T18:29:40.197Z,99264.81
2023-04-16T18:32:11.729Z,99258.47
2023-04-16T18:34:40.298Z,99260.91
2023-04-16T18:37:08.227Z,99263.47
2023-04-16T18:39:36.798Z,99269.53
2023-04-16T18:42:05.229Z,99266.97
2023-04-16T18:44:33.204Z,99267.19
2023-04-16T18:47:02.585Z,99264.91
2023-04-16T18:49:30.535Z,99270.03
2023-04-16T18:51:58.420Z,99266.41
2023-04-16T18:54:26.319Z,99270.59
2023-04-16T18:56:54.221Z,99276.75
2023-04-16T18:59:22.399Z,99271.88
2023-04-16T19:01:50.828Z,99260.69
2023-04-16T19:04:20.263Z,99266.47
2023-04-16T19:06:48.563Z,99283.84
2023-04-16T19:09:17.044Z,99281.50
2023-04-16T19:11:45.183Z,99281.13
2023-04-16T19:14:13.080Z,99283.50
2023-04-16T19:16:41.148Z,99287.34
2023-04-16T19:19:09.301Z,99286.88
2023-04-16T19:21:38.723Z,99287.91
2023-04-16T19:24:07.205Z,99294.25
2023-04-16T19:26:35.162Z,99299.38
2023-04-16T19:29:03.587Z,99293.31
2023-04-16T19:31:31.532Z,99298.09
2023-04-16T19:33:59.468Z,99297.13
2023-04-16T19:36:27.692Z,99292.59
2023-04-16T19:38:57.019Z,99290.78
2023-04-16T19:41:25.013Z,99290.97
2023-04-16T19:43:52.859Z,99275.91
2023-04-16T19:46:20.832Z,99287.47
2023-04-16T19:48:48.812Z,99291.25
2023-04-16T19:51:16.696Z,99286.31
2023-04-16T19:53:44.613Z,99292.75
2023-04-16T19:56:13.936Z,99288.94
2023-04-16T19:58:41.845Z,99291.81
2023-04-16T20:01:10.555Z,99269.97
2023-04-16T20:03:38.728Z,99275.06
2023-04-16T20:06:07.916Z,99285.47
2023-04-16T20:08:35.960Z,99279.50
2023-04-16T20:11:03.869Z,99258.69
2023-04-16T20:13:33.282Z,99277.03
2023-04-16T20:16:01.607Z,99273.94
2023-04-16T20:18:29.529Z,99276.56
2023-04-16T20:20:57.484Z,99275.16
2023-04-16T20:23:25.518Z,99274.41
2023-04-16T20:25:53.431Z,99270.50
2023-04-16T20:28:21.786Z,99273.91
2023-04-16T20:30:51.340Z,99259.75
2023-04-16T20:33:19.288Z,99263.50
2023-04-16T20:35:47.587Z,99227.66
2023-04-16T20:38:15.520Z,99274.31
2023-04-16T20:40:44.730Z,99259.53
2023-04-16T20:43:14.402Z,99260.66
2023-04-16T20:46:06.212Z,99269.66
2023-04-16T20:48:48.970Z,99266.44
2023-04-16T20:51:17.438Z,99269.09
2023-04-16T20:53:45.783Z,99268.13
2023-04-16T20:56:14.978Z,99265.19
2023-04-16T20:58:43.821Z,99249.41
2023-04-16T21:01:13.228Z,99255.56
2023-04-16T21:03:41.408Z,99262.19
2023-04-16T21:06:09.519Z,99258.41
2023-04-16T21:08:37.425Z,99252.63
2023-04-16T21:11:05.522Z,99250.53
2023-04-16T21:13:33.476Z,99250.66
2023-04-16T21:16:01.384Z,99246.19
2023-04-16T21:18:30.913Z,99244.59
2023-04-16T21:20:59.069Z,99234.00
2023-04-16T21:23:26.987Z,99252.13
2023-04-16T21:25:56.726Z,99244.09
2023-04-16T21:28:24.734Z,99235.50
2023-04-16T21:30:52.852Z,99233.88
2023-04-16T21:33:20.907Z,99232.84
2023-04-16T21:35:53.725Z,99232.09
2023-04-16T21:38:22.204Z,99231.97
2023-04-16T21:40:53.934Z,99222.63
2023-04-16T21:43:21.942Z,99224.59
2023-04-16T21:45:49.892Z,99226.22
2023-04-16T21:48:17.782Z,99233.53
2023-04-16T21:50:45.700Z,99236.09
2023-04-16T21:53:15.021Z,99225.78
2023-04-16T21:55:43.847Z,99228.50
2023-04-16T21:58:11.909Z,99229.72
2023-04-16T22:00:39.820Z,99226.50
2023-04-16T22:03:09.173Z,99227.94
2023-04-16T22:05:37.316Z,99231.06
2023-04-16T22:08:20.986Z,99220.94
2023-04-16T22:10:56.942Z,99212.88
2023-04-16T22:13:25.948Z,99227.34
2023-04-16T22:15:54.181Z,99216.09
2023-04-16T22:18:22.152Z,99221.31
2023-04-16T22:20:50.978Z,99216.69
2023-04-16T22:23:18.929Z,99226.31
2023-04-16T22:25:46.785Z,99219.69
2023-04-16T22:28:16.128Z,99217.53
2023-04-16T22:30:44.060Z,99208.53
2023-04-16T22:33:12.164Z,99192.28
2023-04-16T22:35:40.105Z,99211.75
2023-04-16T22:38:08.170Z,99215.75
2023-04-16T22:40:36.065Z,99204.75
2023-04-16T22:43:04.013Z,99212.59
2023-04-16T22:45:33.294Z,99212.13
2023-04-16T22:48:01.233Z,99205.25
2023-04-16T22:50:31.481Z,99197.78
2023-04-16T22:52:59.559Z,99211.19
2023-04-16T22:55:27.613Z,99207.13
2023-04-16T22:57:55.705Z,99198.06
2023-04-16T23:00:24.931Z,99208.44
2023-04-16T23:02:54.412Z,99211.19
2023-04-16T23:05:22.573Z,99207.31
2023-04-16T23:07:50.475Z,99205.22
2023-04-16T23:10:18.572Z,99209.19
2023-04-16T23:12:46.558Z,99201.16
2023-04-16T23:15:14.577Z,99207.69
2023-04-16T23:17:42.574Z,99209.00
2023-04-16T23:20:13.382Z,99210.72
2023-04-16T23:22:41.719Z,99210.81
2023-04-16T23:25:10.626Z,99187.34
2023-04-16T23:27:38.744Z,99195.59
2023-04-16T23:30:08.357Z,99201.84
2023-04-16T23:32:36.297Z,99191.91
2023-04-16T23:35:04.399Z,99197.38
2023-04-16T23:37:33.753Z,99193.59
2023-04-16T23:40:01.900Z,99193.97
2023-04-16T23:42:29.842Z,99173.53
2023-04-16T23:44:57.810Z,99168.63
2023-04-16T23:47:25.732Z,99190.50
2023-04-16T23:49:53.656Z,99175.44
2023-04-16T23:52:21.724Z,99192.47
2023-04-16T23:54:51.036Z,99186.69
2023-04-16T23:57:18.979Z,99171.44
2023-04-16T23:59:46.942Z,99183.28
